Arbela, MO (63432)

7:03 AM CDT on August 26, 2016 (GMT -0500)
Cedar Kahoka | | Change Station

Elev 705 ft 40.42 °N, 91.73 °W | Updated 14 minutes ago

Light Rain
Light Rain
66.2 °F
Feels Like 66.2 °F
N
0.0
Wind Variable Wind from ESE

Today
High -- | Low -- °F
--% Chance of Precip.
Yesterday
High -- | Low -- °F
Precip. -- in
Pressure 30.15 in
Visibility 10.0 miles
Clouds Few 3400 ft
Scattered Clouds 4500 ft
Mostly Cloudy 6000 ft
Dew Point 64 °F
Humidity 93%
Rainfall 0.19 in
Snow Depth Not available.
6:29 AM 7:48 PM
Waning Crescent, 35% visible
METAR KEOK 261155Z AUTO 00000KT 10SM -RA FEW034 SCT045 BKN060 20/19 A3015 RMK AO2 P0003
Pressure 30.15 in
Visibility 10.0 miles
Clouds Few 3400 ft
Scattered Clouds 4500 ft
Mostly Cloudy 6000 ft
Dew Point 64 °F
Humidity 93%
Rainfall 0.19 in
Snow Depth Not available.
6:29 AM 7:48 PM
Waning Crescent, 35% visible
METAR KEOK 261155Z AUTO 00000KT 10SM -RA FEW034 SCT045 BKN060 20/19 A3015 RMK AO2 P0003

10-Day Weather Forecast

Almanac

Astronomy

Aug. 26, 2016 Rise Set
Actual Time
Civil Twilight
Nautical Twilight
Astronomical Twilight
Moon
Length of Visible Light
Length of Day
Tomorrow will be .
, % of the Moon is Illuminated

Today's Extremes

State Highs State Lows

Community

WunderPhotos

Upload Photos

1,935,077 photos uploaded!

WunderBlog® & News

Nearby

Air Quality

  Air Quality AQ Index Pollutant
Not available.

Snow Depth

Station Depth Elevation

Earthquake Activity

City Distance Mag. Time & Date
Minimum magnitude displayed is 2.5.

Coastal Water Temperatures

Place Temperature

Stations

Nearby Weather Stations

Station Location Temp. Windchill Dew Point Humidity Wind Precip. Elev Updated Type
                   

Watches & Warnings

There are currently no watches in effect.